METAR Data
IDs: Format: Raw Decoded Include TAF

Data at: 1307 UTC 26 Feb 2021

EYVI 261250Z 28013KT 9999 BKN013 04/01 Q1016 R19/2///95 TEMPO OVC010